Raleigh Durham International Airport
KRDU : rendu visible

Aérodrome :











RETROUVEZ-NOUS SUR...

 
LOGIN :

S'inscrire | Disclaimer

   EN    FR    IT 

 









Légende :    VFR   VFR Marginal   IFR   IFR Intensif   IFR Très Intensif
Visi : 
Plafond : 
>= 8 km
>= 3000ft
5 à 8 km
1000 à 3000 ft
1500m à 5 km
500 à 1000 ft
800 à 1500m
200 à 500 ft
< 800m
< 200 ft
Symboles :   Orages  Brouillard  Fortes neiges  Fortes précipitations  Vent > 20 kt






- Altitude de l'aérodrome : 435 ft
- Code IATA : RDU


KRDU - Raleigh Durham International

DERNIER METAR :
  • 221551Z 22004KT 10SM FEW250 06/M02 A3047 RMK AO2 SLP321 T00561017

METARs EXPIRÉS :
  • 221451Z 23005KT 10SM FEW250 02/M02 A3048 RMK AO2 SLP324 T00221017 50010
  • 221351Z 23004KT 10SM CLR M01/M02 A3048 RMK AO2 SLP326 T10061022

TAF KRDU
Valide du 22 à 12h jusqu'au 23 à 12h UTC


221120Z 2212/2312 VRB04KT P6SM SKC
FM222000 25005KT P6SM FEW250



MET'MAP, la Météo Aéronautique d'un coup d'oeil ! - Copyright ORBIFLY Décembre 2007 - Disclaimer

ORBIFLY MET'MAP TEAM :

Programmation & Développement : Alexandra Zaïnal
Sur une idée originale de : Baudouin d'Aumeries
Assistance à la programmation : Marc-Olivier Méhu
Soutien technique & logistique : Manuel Goepfert

Contact : metmap@orbifly.com




SOURCES & CREDITS :

   NOAA       Earth
Advisory